Time;durP1;ratioP1;P1;durP2;ratioP2;P2;SDS_P1;SDS_P2;PMS_P1;PMS_P2;Temp;Humidity;BMP_temperature;BMP_pressure;BME280_temperature;BME280_humidity;BME280_pressure;Samples;Min_cycle;Max_cycle;Signal;HPM_P1;HPM_P2
2023/01/11 00:00:23;;;;;;;7.47;5.43;;;8.30;99.90;;;;;;5090627;28;20949;-76
2023/01/11 00:02:54;;;;;;;9.23;5.63;;;8.40;99.90;;;;;;5091368;28;20410;-76
2023/01/11 00:05:20;;;;;;;8.65;5.78;;;8.40;99.90;;;;;;5090584;28;20429;-76
2023/01/11 00:07:45;;;;;;;7.78;5.90;;;8.40;99.90;;;;;;5090171;28;20405;-76
2023/01/11 00:10:11;;;;;;;8.17;6.10;;;8.40;99.90;;;;;;5091926;28;20430;-76
2023/01/11 00:12:36;;;;;;;7.20;5.68;;;8.40;99.90;;;;;;5090428;28;20414;-76
2023/01/11 00:15:02;;;;;;;8.10;5.73;;;8.50;99.90;;;;;;5090809;28;20873;-76
2023/01/11 00:17:28;;;;;;;8.50;5.72;;;8.50;99.90;;;;;;5091301;28;20405;-76
2023/01/11 00:19:54;;;;;;;7.95;6.03;;;8.50;99.90;;;;;;5091684;28;20398;-76
2023/01/11 00:22:20;;;;;;;10.32;6.28;;;8.50;99.90;;;;;;5090683;28;20888;-76
2023/01/11 00:24:45;;;;;;;7.93;5.67;;;8.50;99.90;;;;;;5090407;28;20429;-76
2023/01/11 00:27:11;;;;;;;7.97;5.80;;;8.60;99.90;;;;;;5090789;28;20431;-76
2023/01/11 00:29:36;;;;;;;7.50;5.27;;;8.60;99.90;;;;;;5091333;28;20898;-76
2023/01/11 00:32:02;;;;;;;8.10;5.53;;;8.60;99.90;;;;;;5092278;28;20406;-76
2023/01/11 00:34:28;;;;;;;7.07;5.23;;;8.60;99.90;;;;;;5090307;28;20959;-76
2023/01/11 00:36:53;;;;;;;6.65;5.20;;;8.60;99.90;;;;;;5090002;28;20776;-76
2023/01/11 00:39:19;;;;;;;7.30;4.97;;;8.60;99.90;;;;;;5091206;28;20417;-76
2023/01/11 00:50:01;;;;;;;7.63;4.60;;;8.70;99.90;;;;;;5092806;28;20421;-76
2023/01/11 00:52:27;;;;;;;8.35;4.90;;;8.80;99.90;;;;;;5101195;28;20416;-75
2023/01/11 00:54:53;;;;;;;6.57;4.78;;;8.80;99.90;;;;;;5090732;28;20739;-75
2023/01/11 00:57:18;;;;;;;6.10;4.70;;;8.80;99.90;;;;;;5089566;28;20405;-75
2023/01/11 00:59:44;;;;;;;6.43;4.67;;;8.80;99.90;;;;;;5088351;28;20409;-76
2023/01/11 01:02:10;;;;;;;6.90;4.88;;;8.80;99.90;;;;;;5089952;28;20798;-76
2023/01/11 01:04:37;;;;;;;7.28;4.90;;;8.90;99.90;;;;;;5089462;28;20431;-76
2023/01/11 01:07:03;;;;;;;6.63;4.80;;;8.90;99.90;;;;;;5089925;28;20398;-77
2023/01/11 01:09:29;;;;;;;6.18;4.50;;;8.90;99.90;;;;;;5089593;28;20430;-76
2023/01/11 01:11:55;;;;;;;6.78;4.47;;;8.90;99.90;;;;;;5088722;28;20492;-76
2023/01/11 01:14:29;;;;;;;6.63;4.43;;;8.90;99.90;;;;;;5088714;28;20768;-76
2023/01/11 01:17:08;;;;;;;5.90;4.60;;;8.90;99.90;;;;;;5088825;28;20402;-76
2023/01/11 01:19:37;;;;;;;6.95;4.93;;;9.00;99.90;;;;;;5089582;28;20432;-76
2023/01/11 01:22:03;;;;;;;5.90;4.43;;;9.00;99.90;;;;;;5089202;28;20446;-76
2023/01/11 01:24:29;;;;;;;6.53;4.55;;;9.00;99.90;;;;;;5088355;28;20445;-75
2023/01/11 01:26:56;;;;;;;6.45;4.40;;;9.00;99.90;;;;;;5088765;28;20771;-76
2023/01/11 01:29:22;;;;;;;5.50;4.20;;;9.00;99.90;;;;;;5089058;28;20475;-76
2023/01/11 01:31:47;;;;;;;6.63;4.63;;;9.10;99.90;;;;;;5089952;28;20895;-76
2023/01/11 01:34:13;;;;;;;5.80;4.27;;;9.00;99.90;;;;;;5090196;28;20413;-76
2023/01/11 01:36:39;;;;;;;6.00;4.40;;;9.00;99.90;;;;;;5094164;28;20413;-76
2023/01/11 01:39:05;;;;;;;6.13;4.28;;;9.10;99.90;;;;;;5090852;28;20422;-76
2023/01/11 01:41:31;;;;;;;5.82;4.15;;;9.10;99.90;;;;;;5092689;28;20907;-76
2023/01/11 01:44:00;;;;;;;6.13;4.00;;;9.10;99.90;;;;;;5092014;28;20757;-76
2023/01/11 01:46:28;;;;;;;6.00;4.20;;;9.10;99.90;;;;;;5074156;28;20434;-76
2023/01/11 01:49:14;;;;;;;6.15;4.30;;;9.10;99.90;;;;;;5088280;28;20394;-76
2023/01/11 01:51:53;;;;;;;6.47;3.83;;;9.20;99.90;;;;;;5087695;28;20434;-76
2023/01/11 01:54:24;;;;;;;5.72;3.28;;;9.10;99.90;;;;;;5088352;28;20473;-76
2023/01/11 01:56:55;;;;;;;5.47;3.55;;;9.20;99.90;;;;;;5088037;28;20406;-76
2023/01/11 01:59:25;;;;;;;5.93;4.07;;;9.20;99.90;;;;;;5089909;28;20485;-76
2023/01/11 02:01:51;;;;;;;5.20;3.90;;;9.20;99.90;;;;;;5089796;28;20489;-76
2023/01/11 02:04:39;;;;;;;5.30;3.58;;;9.20;99.90;;;;;;5089176;28;20742;-76
2023/01/11 02:07:10;;;;;;;5.07;3.78;;;9.20;99.90;;;;;;5088940;28;20406;-76
2023/01/11 02:09:47;;;;;;;5.18;3.67;;;9.20;99.90;;;;;;5087934;28;20451;-76
2023/01/11 02:12:15;;;;;;;5.85;3.70;;;9.30;99.90;;;;;;5089773;28;20418;-76
2023/01/11 02:14:43;;;;;;;5.72;3.88;;;9.30;99.90;;;;;;5088399;28;20445;-76
2023/01/11 02:17:09;;;;;;;6.20;3.80;;;9.30;99.90;;;;;;5088977;28;20433;-76
2023/01/11 02:19:57;;;;;;;6.47;4.20;;;9.40;99.90;;;;;;5087406;28;20450;-76
2023/01/11 02:22:57;;;;;;;6.55;3.97;;;9.30;99.90;;;;;;5087027;28;20499;-77
2023/01/11 02:25:31;;;;;;;6.28;4.30;;;9.40;99.90;;;;;;5088899;28;20429;-76
2023/01/11 02:28:18;;;;;;;7.10;4.00;;;9.40;99.90;;;;;;5089993;28;20437;-76
2023/01/11 02:31:05;;;;;;;7.60;4.10;;;9.40;99.90;;;;;;5085701;28;20418;-76
2023/01/11 02:33:46;;;;;;;5.80;3.90;;;9.40;99.90;;;;;;5088574;28;20847;-76
2023/01/11 02:36:24;;;;;;;5.40;3.53;;;9.40;99.90;;;;;;5086894;28;20488;-76
2023/01/11 02:39:02;;;;;;;5.90;3.60;;;9.40;99.90;;;;;;5087182;28;20486;-76
2023/01/11 02:47:29;;;;;;;4.50;3.13;;;9.50;99.90;;;;;;5078449;28;20424;-76
2023/01/11 02:50:15;;;;;;;5.88;3.47;;;9.60;99.90;;;;;;5086533;28;20972;-76
2023/01/11 02:52:55;;;;;;;4.93;3.00;;;9.60;99.90;;;;;;5088413;28;20459;-76
2023/01/11 02:55:26;;;;;;;3.92;2.60;;;9.60;99.90;;;;;;5088630;28;20406;-76
2023/01/11 02:57:55;;;;;;;4.47;2.70;;;9.70;99.90;;;;;;5085975;28;20497;-76
2023/01/11 03:00:22;;;;;;;3.90;2.55;;;9.70;99.90;;;;;;5085840;28;20426;-76
2023/01/11 03:03:05;;;;;;;3.70;2.22;;;9.70;99.90;;;;;;5087139;28;20471;-77
2023/01/11 03:05:33;;;;;;;3.43;2.00;;;9.70;99.90;;;;;;5092255;28;20430;-77
2023/01/11 03:08:24;;;;;;;3.05;1.90;;;9.80;99.90;;;;;;5086246;28;20410;-77
2023/01/11 03:11:06;;;;;;;3.30;1.85;;;9.80;99.90;;;;;;5090998;28;20998;-77
2023/01/11 03:13:56;;;;;;;3.17;2.00;;;9.80;99.90;;;;;;5094795;28;20983;-77
2023/01/11 03:16:29;;;;;;;3.60;1.70;;;9.80;99.90;;;;;;5096506;28;20412;-77
2023/01/11 03:19:23;;;;;;;3.73;1.90;;;9.80;99.90;;;;;;5089965;28;20422;-77
2023/01/11 03:22:01;;;;;;;2.92;1.58;;;9.90;99.90;;;;;;5078056;28;20406;-77
2023/01/11 03:24:51;;;;;;;3.08;1.30;;;9.90;99.90;;;;;;5086774;28;20444;-77
2023/01/11 03:27:49;;;;;;;2.70;1.30;;;9.90;99.90;;;;;;5086678;28;20475;-77
2023/01/11 03:30:39;;;;;;;2.90;1.33;;;9.90;99.90;;;;;;5059607;28;20413;-77
2023/01/11 03:33:23;;;;;;;2.53;1.47;;;9.90;99.90;;;;;;5076470;28;20406;-77
2023/01/11 03:35:57;;;;;;;3.20;1.43;;;10.00;99.90;;;;;;5086782;28;20413;-77
2023/01/11 03:38:50;;;;;;;3.55;1.50;;;10.00;99.90;;;;;;5099765;28;20903;-77
2023/01/11 03:41:21;;;;;;;3.03;1.60;;;10.00;99.90;;;;;;5086711;28;20493;-77
2023/01/11 03:43:50;;;;;;;2.45;1.35;;;10.00;99.90;;;;;;5087665;28;20402;-77
2023/01/11 03:46:25;;;;;;;2.30;1.27;;;10.00;99.90;;;;;;5087122;28;20961;-77
2023/01/11 03:49:02;;;;;;;2.95;1.40;;;10.00;99.90;;;;;;5086909;28;20923;-77
2023/01/11 03:51:34;;;;;;;2.53;1.40;;;10.00;99.90;;;;;;5086251;28;20477;-77
2023/01/11 03:54:04;;;;;;;2.67;1.38;;;10.00;99.90;;;;;;5088483;28;20401;-77
2023/01/11 03:56:48;;;;;;;3.25;1.10;;;10.10;99.90;;;;;;5088109;28;20410;-77
2023/01/11 03:59:13;;;;;;;3.20;1.40;;;10.00;99.90;;;;;;5090314;28;20436;-77
2023/01/11 04:01:39;;;;;;;2.60;1.30;;;10.10;99.90;;;;;;5089569;28;20457;-77
2023/01/11 04:04:05;;;;;;;2.45;1.10;;;10.10;99.90;;;;;;5088563;28;20492;-77
2023/01/11 04:06:34;;;;;;;1.83;1.00;;;10.10;99.90;;;;;;5103199;28;20433;-77
2023/01/11 04:09:00;;;;;;;1.63;1.00;;;10.10;99.90;;;;;;5086118;28;20436;-77
2023/01/11 04:11:25;;;;;;;2.13;1.17;;;10.10;99.90;;;;;;5086477;28;20442;-77
2023/01/11 04:13:51;;;;;;;1.90;1.10;;;10.10;99.90;;;;;;5087892;28;20398;-77
2023/01/11 04:16:16;;;;;;;2.17;1.03;;;10.10;99.90;;;;;;5086576;28;20406;-77
2023/01/11 04:18:42;;;;;;;1.65;1.00;;;10.10;99.90;;;;;;5087889;28;20943;-77
2023/01/11 04:21:07;;;;;;;2.20;0.90;;;10.10;99.90;;;;;;5087685;28;20433;-77
2023/01/11 04:23:33;;;;;;;4.47;1.25;;;10.10;99.90;;;;;;5086266;28;20478;-77
2023/01/11 04:25:59;;;;;;;5.33;1.80;;;10.10;99.90;;;;;;5088241;28;20429;-77
2023/01/11 04:28:24;;;;;;;6.32;1.95;;;10.10;99.90;;;;;;5087718;28;20544;-77
2023/01/11 04:30:50;;;;;;;5.70;2.30;;;10.10;99.90;;;;;;5087600;28;20398;-77
2023/01/11 04:33:15;;;;;;;6.22;2.60;;;10.20;99.90;;;;;;5087966;28;20421;-77
2023/01/11 04:35:42;;;;;;;6.57;2.97;;;10.20;99.90;;;;;;5086282;28;20999;-77
2023/01/11 04:38:08;;;;;;;9.73;3.38;;;10.20;99.90;;;;;;5087333;28;20398;-77
2023/01/11 04:40:33;;;;;;;11.43;3.27;;;10.30;99.90;;;;;;5088270;28;20749;-77
2023/01/11 04:43:01;;;;;;;10.90;2.27;;;10.30;99.90;;;;;;5088891;28;20406;-77
2023/01/11 04:45:30;;;;;;;11.45;2.35;;;10.20;99.90;;;;;;5088576;28;20457;-77
2023/01/11 04:47:56;;;;;;;13.68;2.20;;;10.20;99.90;;;;;;5091129;28;20410;-77
2023/01/11 04:50:23;;;;;;;14.70;2.15;;;10.10;99.90;;;;;;5091831;28;21115;-77
2023/01/11 04:52:49;;;;;;;8.20;1.93;;;10.10;99.90;;;;;;5092535;28;20402;-77
2023/01/11 04:55:15;;;;;;;11.63;1.80;;;10.10;99.90;;;;;;5092585;28;20445;-77
2023/01/11 04:57:43;;;;;;;8.82;1.60;;;10.10;99.90;;;;;;5092350;28;20407;-77
2023/01/11 05:00:09;;;;;;;12.20;2.00;;;10.00;99.90;;;;;;5091961;28;20402;-77
2023/01/11 05:02:39;;;;;;;12.07;1.90;;;10.00;99.90;;;;;;5091854;28;20413;-77
2023/01/11 05:05:06;;;;;;;10.90;1.88;;;10.00;99.90;;;;;;5090714;28;20931;-77
2023/01/11 05:07:32;;;;;;;9.40;1.60;;;10.00;99.90;;;;;;5091506;28;20489;-77
2023/01/11 05:09:58;;;;;;;10.35;1.50;;;9.90;99.90;;;;;;5090273;28;20456;-76
2023/01/11 05:12:23;;;;;;;10.70;1.50;;;9.90;99.90;;;;;;5103797;28;20428;-77
2023/01/11 05:14:49;;;;;;;9.60;1.40;;;9.90;99.90;;;;;;5091071;28;20401;-77
2023/01/11 05:17:15;;;;;;;10.47;1.77;;;9.80;99.90;;;;;;5089373;28;20493;-77
2023/01/11 05:19:41;;;;;;;8.00;1.73;;;9.80;99.90;;;;;;5089875;28;20406;-77
2023/01/11 05:22:07;;;;;;;10.20;1.30;;;9.80;99.90;;;;;;5089042;28;20791;-77
2023/01/11 05:24:33;;;;;;;11.50;1.50;;;9.80;99.90;;;;;;5090727;28;20394;-77
2023/01/11 05:26:59;;;;;;;12.00;1.90;;;9.80;99.90;;;;;;5088754;28;20516;-77
2023/01/11 05:29:25;;;;;;;9.60;1.73;;;9.70;99.90;;;;;;5091392;28;20446;-77
2023/01/11 05:31:50;;;;;;;6.90;0.95;;;9.70;99.90;;;;;;5091285;28;20441;-77
2023/01/11 05:34:17;;;;;;;9.80;1.60;;;9.70;99.90;;;;;;5090466;28;20410;-77
2023/01/11 05:36:44;;;;;;;8.80;1.10;;;9.70;99.90;;;;;;5089260;28;20505;-77
2023/01/11 05:39:12;;;;;;;8.93;1.20;;;9.60;99.90;;;;;;5089795;28;20509;-77
2023/01/11 05:41:38;;;;;;;9.55;1.30;;;9.60;99.90;;;;;;5089575;28;21000;-77
2023/01/11 05:46:48;;;;;;;9.35;1.70;;;9.60;99.90;;;;;;5089187;28;20506;-77
2023/01/11 05:49:14;;;;;;;10.75;1.20;;;9.60;99.90;;;;;;5090124;28;20458;-77
2023/01/11 05:51:41;;;;;;;10.27;1.47;;;9.50;99.90;;;;;;5091293;28;20772;-77
2023/01/11 05:54:12;;;;;;;8.57;1.48;;;9.60;99.90;;;;;;5089845;28;20421;-77
2023/01/11 05:56:38;;;;;;;11.77;1.80;;;9.50;99.90;;;;;;5090339;28;20436;-77
2023/01/11 05:59:04;;;;;;;13.07;1.70;;;9.50;99.90;;;;;;5089496;28;20496;-77
2023/01/11 06:01:30;;;;;;;11.20;1.50;;;9.50;99.90;;;;;;5090171;28;20575;-77
2023/01/11 06:03:55;;;;;;;9.73;1.27;;;9.50;99.90;;;;;;5072822;28;20413;-77
2023/01/11 06:06:21;;;;;;;11.30;1.70;;;9.50;99.90;;;;;;5090086;28;20439;-77
2023/01/11 06:08:47;;;;;;;7.93;1.20;;;9.50;99.90;;;;;;5088930;28;20489;-77
2023/01/11 06:11:13;;;;;;;6.87;1.10;;;9.50;99.90;;;;;;5089190;28;20406;-77
2023/01/11 06:13:39;;;;;;;8.57;1.47;;;9.50;99.90;;;;;;5087990;28;20410;-77
2023/01/11 06:16:05;;;;;;;10.23;1.50;;;9.50;99.90;;;;;;5089883;28;20489;-77
2023/01/11 06:18:42;;;;;;;7.38;1.05;;;9.50;99.90;;;;;;5089921;28;20414;-77
2023/01/11 06:21:08;;;;;;;8.25;1.10;;;9.50;99.90;;;;;;5071087;28;20406;-77
2023/01/11 06:23:38;;;;;;;8.83;1.33;;;9.50;99.90;;;;;;5071272;28;20417;-77
2023/01/11 06:26:06;;;;;;;10.00;1.67;;;9.50;99.90;;;;;;5088174;28;20430;-77
2023/01/11 06:28:32;;;;;;;9.45;1.52;;;9.50;99.90;;;;;;5090142;28;20406;-77
2023/01/11 06:30:58;;;;;;;11.45;1.60;;;9.50;99.90;;;;;;5088092;28;21302;-77
2023/01/11 06:33:25;;;;;;;11.27;1.27;;;9.50;99.90;;;;;;5090333;28;20406;-77
2023/01/11 06:35:52;;;;;;;12.77;1.88;;;9.50;99.90;;;;;;5087817;28;20835;-77
2023/01/11 06:38:19;;;;;;;15.32;2.63;;;9.50;99.90;;;;;;5072148;28;20475;-77
2023/01/11 06:40:53;;;;;;;13.68;2.20;;;9.50;99.90;;;;;;5088317;28;20456;-77
2023/01/11 06:43:19;;;;;;;13.15;2.15;;;9.50;99.90;;;;;;5086781;28;20443;-77
2023/01/11 06:45:45;;;;;;;11.18;2.03;;;9.60;99.90;;;;;;5090101;28;20429;-78
2023/01/11 06:48:10;;;;;;;13.00;2.27;;;9.60;99.90;;;;;;5089665;28;20414;-77
2023/01/11 06:50:36;;;;;;;16.33;2.08;;;9.60;99.90;;;;;;5071672;28;20438;-74
2023/01/11 06:53:02;;;;;;;13.70;2.17;;;9.60;99.90;;;;;;5089801;28;20421;-74
2023/01/11 06:55:28;;;;;;;16.35;2.22;;;9.70;99.90;;;;;;5087667;28;20410;-76
2023/01/11 06:57:54;;;;;;;11.50;1.80;;;9.70;99.90;;;;;;5084795;28;20447;-75
2023/01/11 07:00:21;;;;;;;15.73;2.80;;;9.70;99.90;;;;;;5087329;28;20977;-77
2023/01/11 07:02:47;;;;;;;14.30;2.20;;;9.70;99.90;;;;;;5089106;28;20420;-77
2023/01/11 07:05:14;;;;;;;12.27;1.98;;;9.70;99.90;;;;;;5088731;28;20526;-77
2023/01/11 07:07:41;;;;;;;13.00;1.75;;;9.60;99.90;;;;;;5088509;28;20402;-77
2023/01/11 07:10:09;;;;;;;15.93;2.72;;;9.70;99.90;;;;;;5089281;28;20402;-77
2023/01/11 07:12:35;;;;;;;14.13;2.10;;;9.70;99.90;;;;;;5087233;28;20468;-77
2023/01/11 07:15:06;;;;;;;13.48;1.98;;;9.70;99.90;;;;;;5087284;28;20406;-77
2023/01/11 07:17:31;;;;;;;16.55;1.90;;;9.70;99.90;;;;;;5081128;28;20419;-77
2023/01/11 07:19:57;;;;;;;14.13;2.10;;;9.70;99.90;;;;;;5106347;28;20404;-77
2023/01/11 07:22:23;;;;;;;17.43;2.20;;;9.60;99.90;;;;;;5106654;28;20908;-77
2023/01/11 07:24:49;;;;;;;16.05;2.33;;;9.60;99.90;;;;;;5106278;28;20481;-77
2023/01/11 07:27:14;;;;;;;15.80;2.13;;;9.60;99.90;;;;;;5107550;28;20411;-77
2023/01/11 07:29:40;;;;;;;17.92;2.80;;;9.60;99.90;;;;;;5105637;28;20408;-77
2023/01/11 07:32:07;;;;;;;16.80;2.13;;;9.50;99.90;;;;;;5080217;28;20414;-77
2023/01/11 07:34:33;;;;;;;15.27;2.10;;;9.50;99.90;;;;;;5106734;28;20894;-77
2023/01/11 07:36:59;;;;;;;13.35;1.95;;;9.50;99.90;;;;;;5106774;28;20487;-77
2023/01/11 07:39:25;;;;;;;16.50;2.45;;;9.40;99.90;;;;;;5105325;28;20461;-77
2023/01/11 07:44:34;;;;;;;16.27;2.30;;;9.40;99.90;;;;;;5103247;28;20429;-77
2023/01/11 07:47:00;;;;;;;17.53;2.63;;;9.30;99.90;;;;;;5087020;28;20422;-77
2023/01/11 07:49:26;;;;;;;20.23;2.20;;;9.30;99.90;;;;;;5087359;28;20609;-77
2023/01/11 07:51:52;;;;;;;19.70;2.60;;;9.30;99.90;;;;;;5087079;28;20414;-77
2023/01/11 07:54:18;;;;;;;20.47;2.20;;;9.40;99.90;;;;;;5087013;28;20416;-77
2023/01/11 07:56:43;;;;;;;11.60;1.77;;;9.40;99.90;;;;;;5087028;28;20481;-77
2023/01/11 07:59:09;;;;;;;12.20;1.92;;;9.40;99.90;;;;;;5086711;28;20413;-77
2023/01/11 08:01:38;;;;;;;15.50;1.77;;;9.40;99.90;;;;;;5070875;28;20406;-77
2023/01/11 08:04:04;;;;;;;12.07;1.70;;;9.50;99.90;;;;;;5087463;28;20409;-77
2023/01/11 08:06:29;;;;;;;14.15;1.98;;;9.40;99.90;;;;;;5086864;28;20441;-77
2023/01/11 08:08:55;;;;;;;9.00;1.60;;;9.40;99.90;;;;;;5086682;28;20416;-77
2023/01/11 08:16:49;;;;;;;9.30;1.33;;;9.40;99.90;;;;;;5086332;28;20423;-77
2023/01/11 08:19:15;;;;;;;8.43;1.17;;;9.40;99.90;;;;;;5087951;28;20405;-77
2023/01/11 08:21:43;;;;;;;8.32;1.38;;;9.40;99.90;;;;;;5072780;28;20406;-77
2023/01/11 08:24:09;;;;;;;10.82;1.42;;;9.30;99.90;;;;;;5089995;28;20410;-77
2023/01/11 08:26:34;;;;;;;8.73;0.98;;;9.30;99.90;;;;;;5091599;28;20425;-77
2023/01/11 08:29:00;;;;;;;9.57;1.10;;;9.30;99.90;;;;;;5091149;28;20412;-77
2023/01/11 08:31:26;;;;;;;8.88;1.38;;;9.30;99.90;;;;;;5090205;28;20410;-77
2023/01/11 08:33:51;;;;;;;8.37;1.10;;;9.30;99.90;;;;;;5090785;28;21571;-77
2023/01/11 08:36:17;;;;;;;10.20;1.30;;;9.30;99.90;;;;;;5090795;28;20449;-78
2023/01/11 08:38:42;;;;;;;9.57;1.90;;;9.20;99.90;;;;;;5090158;28;20432;-77
2023/01/11 08:41:12;;;;;;;7.25;0.80;;;9.20;99.90;;;;;;5089843;28;20409;-77
2023/01/11 08:43:41;;;;;;;10.48;1.20;;;9.20;99.90;;;;;;5091656;28;20410;-77
2023/01/11 08:46:08;;;;;;;10.98;1.23;;;9.20;99.90;;;;;;5090038;28;20434;-77
2023/01/11 08:48:34;;;;;;;10.38;1.30;;;9.20;99.90;;;;;;5090727;28;20988;-77
2023/01/11 08:51:00;;;;;;;8.50;1.25;;;9.20;99.90;;;;;;5093430;28;20410;-77
2023/01/11 08:53:26;;;;;;;10.07;1.37;;;9.10;99.90;;;;;;5072318;28;20402;-77
2023/01/11 08:55:52;;;;;;;8.07;1.23;;;9.10;99.90;;;;;;5092986;28;20402;-78
2023/01/11 08:58:18;;;;;;;12.07;1.60;;;9.10;99.90;;;;;;5093417;28;20410;-77
2023/01/11 09:00:44;;;;;;;7.32;1.10;;;9.10;99.90;;;;;;5095353;28;20398;-77
2023/01/11 09:03:11;;;;;;;10.40;1.30;;;9.10;99.90;;;;;;5093744;28;20408;-77
2023/01/11 09:05:40;;;;;;;9.27;1.38;;;9.10;99.90;;;;;;5075314;28;20482;-77
2023/01/11 09:08:07;;;;;;;12.98;1.58;;;9.00;99.90;;;;;;5094466;28;20419;-77
2023/01/11 09:10:33;;;;;;;8.20;1.25;;;9.00;99.90;;;;;;5092253;28;20416;-77
2023/01/11 09:12:59;;;;;;;16.27;2.33;;;9.00;99.90;;;;;;5101092;28;20468;-77
2023/01/11 09:15:25;;;;;;;10.57;1.48;;;9.00;99.90;;;;;;5090153;28;20506;-77
2023/01/11 09:17:52;;;;;;;16.48;2.30;;;9.00;99.90;;;;;;5090518;28;20414;-77
2023/01/11 09:20:19;;;;;;;14.48;2.00;;;9.00;99.90;;;;;;5091273;28;20428;-77
2023/01/11 09:22:50;;;;;;;12.15;1.80;;;9.00;99.90;;;;;;5091338;28;20402;-77
2023/01/11 09:25:17;;;;;;;16.98;2.30;;;9.00;99.90;;;;;;5090760;28;20500;-77
2023/01/11 09:27:47;;;;;;;12.52;1.92;;;9.00;99.90;;;;;;5091407;28;20496;-77
2023/01/11 09:30:16;;;;;;;13.20;1.63;;;9.00;99.90;;;;;;5090832;28;20469;-77
2023/01/11 09:32:41;;;;;;;14.23;2.08;;;9.00;99.90;;;;;;5090867;28;20794;-77
2023/01/11 09:35:08;;;;;;;10.10;1.95;;;9.10;99.90;;;;;;5089777;28;20479;-77
2023/01/11 09:37:40;;;;;;;11.93;1.60;;;9.10;99.90;;;;;;5090267;28;20444;-77
2023/01/11 09:40:11;;;;;;;12.55;1.58;;;9.10;99.90;;;;;;5093431;28;20444;-77
2023/01/11 09:42:41;;;;;;;12.17;1.53;;;9.10;99.90;;;;;;5090607;28;20424;-77
2023/01/11 09:45:19;;;;;;;11.00;1.42;;;9.00;99.90;;;;;;5090423;28;20430;-77
2023/01/11 09:47:51;;;;;;;9.52;1.48;;;9.00;99.90;;;;;;5092652;28;20827;-77
2023/01/11 09:50:27;;;;;;;14.70;1.80;;;8.90;99.90;;;;;;5091686;28;20417;-77
2023/01/11 09:53:02;;;;;;;11.98;1.98;;;8.90;99.90;;;;;;5093132;28;20404;-77
2023/01/11 09:55:39;;;;;;;16.30;1.95;;;8.90;99.90;;;;;;5073069;28;20986;-77
2023/01/11 09:58:21;;;;;;;7.22;1.38;;;8.90;99.90;;;;;;5091447;28;20425;-77
2023/01/11 10:01:13;;;;;;;10.35;1.65;;;8.90;99.90;;;;;;5091759;28;20418;-77
2023/01/11 10:04:10;;;;;;;13.90;2.28;;;8.90;99.90;;;;;;5090759;28;20463;-77
2023/01/11 10:06:47;;;;;;;12.55;1.70;;;8.90;99.90;;;;;;5051625;28;21199;-77
2023/01/11 10:09:17;;;;;;;10.73;2.08;;;9.00;99.90;;;;;;5090395;28;20446;-77
2023/01/11 10:11:50;;;;;;;9.77;1.40;;;9.00;99.90;;;;;;5088381;28;20946;-77
2023/01/11 10:14:54;;;;;;;10.57;1.40;;;9.10;99.90;;;;;;5074686;28;20417;-78
2023/01/11 10:17:41;;;;;;;10.43;1.75;;;9.10;99.90;;;;;;5088345;28;20449;-78
2023/01/11 10:20:15;;;;;;;10.53;1.60;;;9.10;99.90;;;;;;5071478;28;20507;-78
2023/01/11 10:22:46;;;;;;;12.63;1.80;;;9.20;99.90;;;;;;5088087;28;20414;-78
2023/01/11 10:25:13;;;;;;;10.07;1.88;;;9.20;99.90;;;;;;5071136;28;20828;-77
2023/01/11 10:27:57;;;;;;;8.02;1.08;;;9.30;99.90;;;;;;5089880;28;20402;-77
2023/01/11 10:30:35;;;;;;;12.82;1.70;;;9.30;99.90;;;;;;5071876;28;20414;-78
2023/01/11 10:33:37;;;;;;;10.60;1.70;;;9.30;99.90;;;;;;5071834;28;20414;-77
2023/01/11 10:40:02;;;;;;;12.80;1.88;;;9.30;99.90;;;;;;5047969;28;20447;-77
2023/01/11 10:42:43;;;;;;;10.75;2.00;;;9.40;99.90;;;;;;5079424;28;20417;-77
2023/01/11 10:45:17;;;;;;;11.35;1.92;;;9.40;99.90;;;;;;5086791;28;20447;-78
2023/01/11 10:48:14;;;;;;;10.18;1.52;;;9.50;99.90;;;;;;5088520;28;20486;-77
2023/01/11 10:50:56;;;;;;;9.93;1.38;;;9.50;99.90;;;;;;5055647;28;20460;-77
2023/01/11 10:53:32;;;;;;;11.00;1.80;;;9.60;99.90;;;;;;5089178;28;20447;-77
2023/01/11 10:56:17;;;;;;;10.55;1.55;;;9.90;99.90;;;;;;5091140;28;20423;-77
2023/01/11 10:59:12;;;;;;;9.83;1.73;;;10.20;99.90;;;;;;5088330;28;20421;-77
2023/01/11 11:02:15;;;;;;;8.73;1.40;;;10.50;99.90;;;;;;5078645;28;20701;-77
2023/01/11 11:05:05;;;;;;;7.47;1.33;;;10.60;99.90;;;;;;5087321;28;20418;-78
2023/01/11 11:07:43;;;;;;;8.55;1.00;;;10.70;99.90;;;;;;5087267;28;20451;-78
2023/01/11 11:10:25;;;;;;;7.43;1.13;;;11.00;99.90;;;;;;5087380;28;20414;-78
2023/01/11 11:13:14;;;;;;;7.65;1.50;;;11.10;99.90;;;;;;5075455;28;20414;-78
2023/01/11 11:15:59;;;;;;;9.68;1.90;;;11.30;99.90;;;;;;5088155;28;20945;-78
2023/01/11 11:18:24;;;;;;;10.60;1.50;;;11.50;99.90;;;;;;5090662;28;20406;-78
2023/01/11 11:20:50;;;;;;;9.87;1.53;;;11.50;99.90;;;;;;5072293;28;20492;-78
2023/01/11 11:23:20;;;;;;;10.32;1.35;;;11.40;99.90;;;;;;5072819;28;20414;-78
2023/01/11 11:25:52;;;;;;;7.80;1.42;;;11.50;99.90;;;;;;5088744;28;20807;-78
2023/01/11 11:28:21;;;;;;;11.48;1.52;;;11.50;99.90;;;;;;5089310;28;20904;-78
2023/01/11 11:30:48;;;;;;;10.70;1.60;;;11.80;99.90;;;;;;5088768;28;20410;-77
2023/01/11 11:33:21;;;;;;;12.02;1.20;;;11.90;99.90;;;;;;5090176;28;20409;-77
2023/01/11 11:36:00;;;;;;;10.65;1.23;;;11.90;99.90;;;;;;5088224;28;20791;-77
2023/01/11 11:38:29;;;;;;;9.30;1.60;;;11.70;99.90;;;;;;5073759;28;20467;-77
2023/01/11 11:41:07;;;;;;;12.80;1.65;;;11.70;99.90;;;;;;5089046;28;20425;-77
2023/01/11 11:43:38;;;;;;;9.45;1.67;;;11.60;99.90;;;;;;5088585;28;20414;-77
2023/01/11 11:46:13;;;;;;;10.63;1.70;;;11.60;99.90;;;;;;5089425;28;20459;-78
2023/01/11 11:48:40;;;;;;;11.20;1.77;;;11.70;99.90;;;;;;5088196;28;20418;-78
2023/01/11 11:51:15;;;;;;;9.57;1.60;;;11.50;99.90;;;;;;5089574;28;20402;-78
2023/01/11 11:53:46;;;;;;;9.73;1.50;;;11.40;99.90;;;;;;5090533;28;20907;-78
2023/01/11 11:56:28;;;;;;;9.73;1.70;;;11.30;99.90;;;;;;5094903;28;20406;-78
2023/01/11 11:58:56;;;;;;;11.32;1.80;;;11.10;99.90;;;;;;5087909;28;20956;-78
2023/01/11 12:01:29;;;;;;;12.38;1.80;;;11.00;99.90;;;;;;5089601;28;20938;-78
2023/01/11 12:04:12;;;;;;;12.27;1.70;;;11.00;99.90;;;;;;5086420;28;20444;-77
2023/01/11 12:06:39;;;;;;;10.40;1.63;;;11.00;99.90;;;;;;5068956;28;20446;-78
2023/01/11 12:09:12;;;;;;;11.82;1.65;;;11.00;99.90;;;;;;5079458;28;20402;-78
2023/01/11 12:11:41;;;;;;;13.87;2.80;;;11.10;99.90;;;;;;5080079;28;20411;-78
2023/01/11 12:14:09;;;;;;;14.02;2.08;;;11.10;99.90;;;;;;5072644;28;20415;-78
2023/01/11 12:16:42;;;;;;;15.18;1.92;;;11.10;99.90;;;;;;5071535;28;20437;-78
2023/01/11 12:19:26;;;;;;;14.43;2.25;;;11.10;99.90;;;;;;5059912;28;20494;-78
2023/01/11 12:22:02;;;;;;;14.65;2.35;;;10.90;99.90;;;;;;5082852;28;20508;-78
2023/01/11 12:24:28;;;;;;;9.90;1.80;;;10.80;99.90;;;;;;5091863;28;20394;-78
2023/01/11 12:27:23;;;;;;;12.38;1.90;;;10.60;99.90;;;;;;5092519;28;20492;-77
2023/01/11 12:29:54;;;;;;;13.68;2.08;;;10.50;99.90;;;;;;5091661;28;20501;-78
2023/01/11 12:32:40;;;;;;;14.40;1.83;;;10.40;99.90;;;;;;5091296;28;20418;-78
2023/01/11 12:35:22;;;;;;;12.60;1.70;;;10.30;99.90;;;;;;5092936;28;20416;-78
2023/01/11 12:38:18;;;;;;;14.48;2.50;;;10.20;99.90;;;;;;5088674;28;20615;-77
2023/01/11 12:40:54;;;;;;;14.47;2.50;;;10.20;99.90;;;;;;5081015;28;20461;-76
2023/01/11 12:43:24;;;;;;;14.32;2.58;;;10.20;99.90;;;;;;5089769;28;20839;-76
2023/01/11 12:46:03;;;;;;;11.43;1.80;;;10.30;99.90;;;;;;5088389;28;20932;-77
2023/01/11 12:48:43;;;;;;;11.55;1.83;;;10.50;99.90;;;;;;5090837;28;20410;-77
2023/01/11 12:51:28;;;;;;;14.43;2.40;;;10.60;99.90;;;;;;5090357;28;20436;-77
2023/01/11 12:54:13;;;;;;;11.10;1.77;;;10.70;99.90;;;;;;5090360;28;20453;-77
2023/01/11 12:57:06;;;;;;;15.70;2.28;;;10.80;99.90;;;;;;5066010;28;20422;-77
2023/01/11 13:00:09;;;;;;;12.88;2.40;;;10.70;99.90;;;;;;5065901;28;20509;-77
2023/01/11 13:02:51;;;;;;;10.57;2.08;;;10.70;99.90;;;;;;5088735;28;20436;-77
2023/01/11 13:05:42;;;;;;;17.35;2.60;;;10.60;99.90;;;;;;5086943;28;20466;-78
2023/01/11 13:08:19;;;;;;;13.02;2.40;;;10.50;99.90;;;;;;5088814;28;20414;-77
2023/01/11 13:10:56;;;;;;;12.83;1.97;;;10.50;99.90;;;;;;5079167;28;20428;-77
2023/01/11 13:13:40;;;;;;;14.57;2.25;;;10.40;99.90;;;;;;5086389;28;20434;-77
2023/01/11 13:16:29;;;;;;;14.15;2.55;;;10.50;99.90;;;;;;5077977;28;20434;-76
2023/01/11 13:19:09;;;;;;;12.90;2.20;;;10.50;99.90;;;;;;5096731;28;20428;-77
2023/01/11 13:21:51;;;;;;;16.08;2.00;;;10.50;99.90;;;;;;5102792;28;22153;-76
2023/01/11 13:24:25;;;;;;;12.60;2.00;;;10.40;99.90;;;;;;5084378;28;20939;-77
2023/01/11 13:26:53;;;;;;;16.00;2.28;;;10.30;99.90;;;;;;5084456;28;20555;-77
2023/01/11 13:29:31;;;;;;;16.05;2.17;;;10.30;99.90;;;;;;5091643;28;20407;-77
2023/01/11 13:31:59;;;;;;;12.63;1.88;;;10.20;99.90;;;;;;5088720;28;20426;-77
2023/01/11 13:34:32;;;;;;;13.95;2.20;;;10.10;99.90;;;;;;5085447;28;20426;-77
2023/01/11 13:37:02;;;;;;;14.77;2.58;;;10.00;99.90;;;;;;5084269;28;20442;-77
2023/01/11 13:39:38;;;;;;;14.80;2.45;;;10.00;99.90;;;;;;5070966;28;20421;-77